createdAt,value
2023-09-20T00:00:43.825Z,100.00
2023-09-20T00:03:33.397Z,100.00
2023-09-20T00:06:10.844Z,100.00
2023-09-20T00:08:40.401Z,100.00
2023-09-20T00:11:16.590Z,100.00
2023-09-20T00:13:47.985Z,100.00
2023-09-20T00:16:18.004Z,100.00
2023-09-20T00:18:47.477Z,100.00
2023-09-20T00:21:17.189Z,100.00
2023-09-20T00:23:46.487Z,100.00
2023-09-20T00:26:15.976Z,100.00
2023-09-20T00:28:50.120Z,100.00
2023-09-20T00:31:19.381Z,100.00
2023-09-20T00:33:50.773Z,100.00
2023-09-20T00:36:21.090Z,100.00
2023-09-20T00:38:50.506Z,100.00
2023-09-20T00:41:20.221Z,100.00
2023-09-20T00:43:54.006Z,100.00
2023-09-20T00:46:25.887Z,100.00
2023-09-20T00:48:57.117Z,100.00
2023-09-20T00:51:27.465Z,100.00
2023-09-20T00:53:59.681Z,100.00
2023-09-20T00:56:29.163Z,100.00
2023-09-20T00:58:58.983Z,100.00
2023-09-20T01:01:28.768Z,100.00
2023-09-20T01:03:59.113Z,100.00
2023-09-20T01:06:28.766Z,100.00
2023-09-20T01:08:59.540Z,100.00
2023-09-20T01:11:29.248Z,100.00
2023-09-20T01:14:00.947Z,100.00
2023-09-20T01:16:30.362Z,100.00
2023-09-20T01:18:59.809Z,100.00
2023-09-20T01:21:29.774Z,100.00
2023-09-20T01:24:00.459Z,100.00
2023-09-20T01:26:30.762Z,100.00
2023-09-20T01:29:00.817Z,100.00
2023-09-20T01:31:32.002Z,100.00
2023-09-20T01:34:01.624Z,100.00
2023-09-20T01:36:32.873Z,100.00
2023-09-20T01:39:02.578Z,100.00
2023-09-20T01:41:32.264Z,100.00
2023-09-20T01:44:01.831Z,100.00
2023-09-20T01:46:34.689Z,100.00
2023-09-20T01:49:06.601Z,100.00
2023-09-20T01:51:36.329Z,100.00
2023-09-20T01:54:05.989Z,100.00
2023-09-20T01:56:36.525Z,100.00
2023-09-20T01:59:07.353Z,100.00
2023-09-20T02:01:39.297Z,100.00
2023-09-20T02:04:10.192Z,100.00
2023-09-20T02:06:39.674Z,100.00
2023-09-20T02:09:10.471Z,100.00
2023-09-20T02:11:39.770Z,100.00
2023-09-20T02:14:09.764Z,100.00
2023-09-20T02:16:40.048Z,100.00
2023-09-20T02:19:09.477Z,100.00
2023-09-20T02:21:39.120Z,100.00
2023-09-20T02:24:10.687Z,100.00
2023-09-20T02:26:39.950Z,100.00
2023-09-20T02:29:09.487Z,100.00
2023-09-20T02:31:38.888Z,100.00
2023-09-20T02:34:09.905Z,100.00
2023-09-20T02:36:39.239Z,100.00
2023-09-20T02:39:10.720Z,100.00
2023-09-20T02:41:40.483Z,100.00
2023-09-20T02:44:10.114Z,100.00
2023-09-20T02:46:40.585Z,100.00
2023-09-20T02:49:09.932Z,100.00
2023-09-20T02:51:39.612Z,100.00
2023-09-20T02:54:10.204Z,100.00
2023-09-20T02:56:40.223Z,100.00
2023-09-20T02:59:09.604Z,100.00
2023-09-20T03:01:40.222Z,100.00
2023-09-20T03:04:09.799Z,100.00
2023-09-20T03:06:39.337Z,100.00
2023-09-20T03:09:08.740Z,100.00
2023-09-20T03:11:39.269Z,100.00
2023-09-20T03:14:09.929Z,100.00
2023-09-20T03:16:39.392Z,100.00
2023-09-20T03:19:13.024Z,100.00
2023-09-20T03:21:44.794Z,100.00
2023-09-20T03:24:14.989Z,100.00
2023-09-20T03:26:45.728Z,100.00
2023-09-20T03:29:15.435Z,100.00
2023-09-20T03:31:45.932Z,100.00
2023-09-20T03:34:16.064Z,100.00
2023-09-20T03:36:48.137Z,100.00
2023-09-20T03:39:21.693Z,100.00
2023-09-20T03:41:52.337Z,100.00
2023-09-20T03:44:21.804Z,100.00
2023-09-20T03:46:52.337Z,100.00
2023-09-20T03:49:22.783Z,100.00
2023-09-20T03:51:53.374Z,100.00
2023-09-20T03:54:22.876Z,100.00
2023-09-20T03:56:52.910Z,100.00
2023-09-20T03:59:22.437Z,100.00
2023-09-20T04:01:51.975Z,100.00
2023-09-20T04:04:21.509Z,100.00
2023-09-20T04:06:51.322Z,100.00
2023-09-20T04:09:22.262Z,100.00
2023-09-20T04:11:52.605Z,100.00
2023-09-20T04:14:22.440Z,100.00
2023-09-20T04:16:52.007Z,100.00
2023-09-20T04:19:22.430Z,100.00
2023-09-20T04:21:52.004Z,100.00
2023-09-20T04:24:21.419Z,100.00
2023-09-20T04:26:51.162Z,100.00
2023-09-20T04:29:20.506Z,100.00
2023-09-20T04:31:51.116Z,100.00
2023-09-20T04:34:21.528Z,100.00
2023-09-20T04:36:54.077Z,100.00
2023-09-20T04:39:27.184Z,100.00
2023-09-20T04:41:57.026Z,100.00
2023-09-20T04:44:27.478Z,100.00
2023-09-20T04:46:59.134Z,100.00
2023-09-20T04:49:30.231Z,100.00
2023-09-20T04:52:02.454Z,100.00
2023-09-20T04:54:31.999Z,100.00
2023-09-20T04:57:01.524Z,100.00
2023-09-20T04:59:30.963Z,100.00
2023-09-20T05:02:04.421Z,100.00
2023-09-20T05:04:35.978Z,100.00
2023-09-20T05:07:09.002Z,100.00
2023-09-20T05:09:40.403Z,100.00
2023-09-20T05:12:11.660Z,100.00
2023-09-20T05:14:41.066Z,100.00
2023-09-20T05:17:11.233Z,100.00
2023-09-20T05:19:40.678Z,100.00
2023-09-20T05:22:11.112Z,100.00
2023-09-20T05:24:40.918Z,100.00
2023-09-20T05:27:10.246Z,100.00
2023-09-20T05:29:41.265Z,100.00
2023-09-20T05:32:11.972Z,100.00
2023-09-20T05:34:41.120Z,100.00
2023-09-20T05:37:11.231Z,100.00
2023-09-20T05:39:40.615Z,100.00
2023-09-20T05:42:11.045Z,100.00
2023-09-20T05:44:40.295Z,100.00
2023-09-20T05:47:10.494Z,100.00
2023-09-20T05:49:40.224Z,99.69
2023-09-20T05:52:09.450Z,99.07
2023-09-20T05:54:44.041Z,98.71
2023-09-20T05:57:15.359Z,98.38
2023-09-20T05:59:44.878Z,97.83
2023-09-20T06:02:14.274Z,97.41
2023-09-20T06:04:43.478Z,97.04
2023-09-20T06:07:13.572Z,96.63
2023-09-20T06:09:43.112Z,96.06
2023-09-20T06:12:12.684Z,95.80
2023-09-20T06:14:42.240Z,95.44
2023-09-20T06:17:11.810Z,95.33
2023-09-20T06:19:41.509Z,94.91
2023-09-20T06:22:11.026Z,94.80
2023-09-20T06:24:40.389Z,94.64
2023-09-20T06:27:10.953Z,94.46
2023-09-20T06:29:40.526Z,94.16
2023-09-20T06:32:10.694Z,93.91
2023-09-20T06:34:53.137Z,93.81
2023-09-20T06:37:27.810Z,93.75
2023-09-20T06:39:57.747Z,93.39
2023-09-20T06:42:31.108Z,93.31
2023-09-20T06:45:00.465Z,93.42
2023-09-20T06:47:31.687Z,93.13
2023-09-20T06:50:04.372Z,92.64
2023-09-20T06:52:34.686Z,92.76
2023-09-20T06:55:05.194Z,92.63
2023-09-20T06:57:34.708Z,92.51
2023-09-20T07:00:17.560Z,92.47
2023-09-20T07:02:47.905Z,92.27
2023-09-20T07:05:18.931Z,92.02
2023-09-20T07:07:48.496Z,91.88
2023-09-20T07:10:18.445Z,91.54
2023-09-20T07:12:49.072Z,91.17
2023-09-20T07:15:21.629Z,90.46
2023-09-20T07:17:52.012Z,90.24
2023-09-20T07:20:22.111Z,89.96
2023-09-20T07:22:52.810Z,90.01
2023-09-20T07:25:24.566Z,89.86
2023-09-20T07:27:56.939Z,89.74
2023-09-20T07:30:32.936Z,89.50
2023-09-20T07:33:11.754Z,89.27
2023-09-20T07:35:54.422Z,88.90
2023-09-20T07:38:29.342Z,88.93
2023-09-20T07:41:11.530Z,89.26
2023-09-20T07:43:45.884Z,89.33
2023-09-20T07:46:17.514Z,89.23
2023-09-20T07:48:51.948Z,88.90
2023-09-20T07:51:24.661Z,87.94
2023-09-20T07:53:57.864Z,87.41
2023-09-20T07:56:28.350Z,87.25
2023-09-20T07:58:57.977Z,87.00
2023-09-20T08:01:30.989Z,86.46
2023-09-20T08:04:02.087Z,85.65
2023-09-20T08:06:34.985Z,84.31
2023-09-20T08:09:06.185Z,83.79
2023-09-20T08:11:36.093Z,84.91
2023-09-20T08:14:06.203Z,82.68
2023-09-20T08:19:17.671Z,66.30
2023-09-20T08:21:47.279Z,66.48
2023-09-20T08:24:35.221Z,63.66
2023-09-20T08:27:23.092Z,60.39
2023-09-20T08:30:10.838Z,56.03
2023-09-20T08:32:59.655Z,51.74
2023-09-20T08:35:47.644Z,49.07
2023-09-20T08:38:36.750Z,44.96
2023-09-20T08:41:25.949Z,45.92
2023-09-20T08:44:15.505Z,45.33
2023-09-20T08:47:05.475Z,45.79
2023-09-20T08:49:54.335Z,46.17
2023-09-20T08:52:46.068Z,46.99
2023-09-20T08:55:34.572Z,48.04
2023-09-20T08:58:23.782Z,49.27
2023-09-20T09:00:53.475Z,49.87
2023-09-20T09:03:25.329Z,51.22
2023-09-20T09:05:55.380Z,51.68
2023-09-20T09:08:25.170Z,52.19
2023-09-20T09:10:54.905Z,52.88
2023-09-20T09:13:25.125Z,52.13
2023-09-20T09:15:54.541Z,51.58
2023-09-20T09:18:24.034Z,51.93
2023-09-20T09:20:54.095Z,51.85
2023-09-20T09:23:39.440Z,52.13
2023-09-20T09:26:09.423Z,52.45
2023-09-20T09:28:40.021Z,52.82
2023-09-20T09:31:10.319Z,52.86
2023-09-20T09:33:40.931Z,52.93
2023-09-20T09:36:12.356Z,54.23
2023-09-20T09:38:42.669Z,54.42
2023-09-20T09:41:12.544Z,54.15
2023-09-20T09:43:42.302Z,54.19
2023-09-20T09:46:11.988Z,53.81
2023-09-20T09:48:44.385Z,53.19
2023-09-20T09:51:15.735Z,52.39
2023-09-20T09:53:47.061Z,51.63
2023-09-20T09:56:18.608Z,50.44
2023-09-20T09:58:48.092Z,47.98
2023-09-20T10:01:18.610Z,47.81
2023-09-20T10:03:51.861Z,46.48
2023-09-20T10:06:27.036Z,45.08
2023-09-20T10:09:01.697Z,44.65
2023-09-20T10:11:31.332Z,43.70
2023-09-20T10:14:02.449Z,43.44
2023-09-20T10:16:32.421Z,41.92
2023-09-20T10:19:03.017Z,39.39
2023-09-20T10:21:33.955Z,40.34
2023-09-20T10:24:09.920Z,40.59
2023-09-20T10:26:43.277Z,40.21
2023-09-20T10:29:31.793Z,39.20
2023-09-20T10:32:15.249Z,37.55
2023-09-20T10:35:31.593Z,38.36
2023-09-20T10:38:22.567Z,38.01
2023-09-20T10:40:56.653Z,36.88
2023-09-20T10:43:38.292Z,37.01
2023-09-20T10:46:10.090Z,37.77
2023-09-20T10:48:51.194Z,38.31
2023-09-20T10:51:50.741Z,38.18
2023-09-20T10:54:27.699Z,38.51
2023-09-20T10:57:04.723Z,37.81
2023-09-20T10:59:35.891Z,37.63
2023-09-20T11:02:11.615Z,38.13
2023-09-20T11:04:42.099Z,37.07
2023-09-20T11:07:11.306Z,37.56
2023-09-20T11:09:40.882Z,37.47
2023-09-20T11:12:10.794Z,37.83
2023-09-20T11:14:46.232Z,37.88
2023-09-20T11:17:17.827Z,37.20
2023-09-20T11:19:48.554Z,37.17
2023-09-20T11:22:20.170Z,37.10
2023-09-20T11:24:49.485Z,36.74
2023-09-20T11:27:19.410Z,36.46
2023-09-20T11:29:50.753Z,36.91
2023-09-20T11:32:23.687Z,36.12
2023-09-20T11:34:53.464Z,36.74
2023-09-20T11:37:24.490Z,36.88
2023-09-20T11:39:55.564Z,36.84
2023-09-20T11:42:27.846Z,37.34
2023-09-20T11:47:46.846Z,38.00
2023-09-20T11:50:17.849Z,38.34
2023-09-20T11:52:48.798Z,38.30
2023-09-20T11:55:21.045Z,38.62
2023-09-20T11:57:54.177Z,38.88
2023-09-20T12:00:28.424Z,38.68
2023-09-20T12:02:59.591Z,38.40
2023-09-20T12:05:30.294Z,38.52
2023-09-20T12:08:01.869Z,38.89
2023-09-20T12:10:32.085Z,39.13
2023-09-20T12:13:01.580Z,38.65
2023-09-20T12:15:34.334Z,38.84
2023-09-20T12:18:04.891Z,38.53
2023-09-20T12:20:39.400Z,38.97
2023-09-20T12:23:09.293Z,39.55
2023-09-20T12:25:42.046Z,39.37
2023-09-20T12:28:12.414Z,39.40
2023-09-20T12:30:41.896Z,39.24
2023-09-20T12:33:11.802Z,38.68
2023-09-20T12:35:42.226Z,39.13
2023-09-20T12:38:11.914Z,39.09
2023-09-20T12:40:41.623Z,39.49
2023-09-20T12:43:11.543Z,39.25
2023-09-20T12:45:40.982Z,39.42
2023-09-20T12:48:12.332Z,39.53
2023-09-20T12:50:43.246Z,40.07
2023-09-20T12:53:12.527Z,40.36
2023-09-20T12:55:42.114Z,40.18
2023-09-20T12:58:14.538Z,39.82
2023-09-20T13:00:47.614Z,39.91
2023-09-20T13:03:18.863Z,39.84
2023-09-20T13:05:49.642Z,40.06
2023-09-20T13:08:20.752Z,40.41
2023-09-20T13:10:53.352Z,40.63
2023-09-20T13:13:28.103Z,40.68
2023-09-20T13:15:58.662Z,40.86
2023-09-20T13:18:30.249Z,40.97
2023-09-20T13:20:59.893Z,41.20
2023-09-20T13:23:32.833Z,41.06
2023-09-20T13:26:06.208Z,41.19
2023-09-20T13:28:36.003Z,41.29
2023-09-20T13:31:05.982Z,41.14
2023-09-20T13:33:36.064Z,41.03
2023-09-20T13:36:06.477Z,40.87
2023-09-20T13:38:38.160Z,41.00
2023-09-20T13:41:07.816Z,40.67
2023-09-20T13:43:37.110Z,40.63
2023-09-20T13:46:17.272Z,40.33
2023-09-20T13:48:50.102Z,40.74
2023-09-20T13:51:19.958Z,40.71
2023-09-20T13:53:51.591Z,40.84
2023-09-20T13:56:21.248Z,40.22
2023-09-20T13:58:55.667Z,40.60
2023-09-20T14:01:25.266Z,40.74
2023-09-20T14:03:56.191Z,40.96
2023-09-20T14:06:26.147Z,41.19
2023-09-20T14:08:56.510Z,41.16
2023-09-20T14:11:26.727Z,41.38
2023-09-20T14:13:56.309Z,41.57
2023-09-20T14:16:26.872Z,41.65
2023-09-20T14:18:56.652Z,41.88
2023-09-20T14:21:25.946Z,42.12
2023-09-20T14:23:57.024Z,42.20
2023-09-20T14:26:30.317Z,42.02
2023-09-20T14:29:01.101Z,42.52
2023-09-20T14:31:30.558Z,42.61
2023-09-20T14:34:00.283Z,42.83
2023-09-20T14:36:29.732Z,43.22
2023-09-20T14:38:59.733Z,43.55
2023-09-20T14:41:29.513Z,43.76
2023-09-20T14:43:59.076Z,44.08
2023-09-20T14:46:28.724Z,44.18
2023-09-20T14:48:58.909Z,44.54
2023-09-20T14:51:28.615Z,44.65
2023-09-20T14:53:59.496Z,44.68
2023-09-20T14:56:29.100Z,44.73
2023-09-20T14:58:58.876Z,44.95
2023-09-20T15:01:28.491Z,45.16
2023-09-20T15:03:58.091Z,45.33
2023-09-20T15:06:31.469Z,45.58
2023-09-20T15:09:03.114Z,45.84
2023-09-20T15:11:32.687Z,46.12
2023-09-20T15:14:02.161Z,46.16
2023-09-20T15:16:31.654Z,46.40
2023-09-20T15:19:03.316Z,46.60
2023-09-20T15:21:33.168Z,46.81
2023-09-20T15:24:02.845Z,46.96
2023-09-20T15:26:36.986Z,46.95
2023-09-20T15:29:06.575Z,47.30
2023-09-20T15:31:36.296Z,47.70
2023-09-20T15:34:05.994Z,48.13
2023-09-20T15:36:35.344Z,48.24
2023-09-20T15:39:04.953Z,48.50
2023-09-20T15:41:37.062Z,48.67
2023-09-20T15:44:07.008Z,48.80
2023-09-20T15:46:36.577Z,49.01
2023-09-20T15:49:06.288Z,49.39
2023-09-20T15:51:36.007Z,49.35
2023-09-20T15:54:05.712Z,49.57
2023-09-20T15:56:35.208Z,49.66
2023-09-20T15:59:04.848Z,49.81
2023-09-20T16:01:37.723Z,50.12
2023-09-20T16:04:10.306Z,50.29
2023-09-20T16:06:40.104Z,50.29
2023-09-20T16:09:10.723Z,50.54
2023-09-20T16:11:40.171Z,50.76
2023-09-20T16:14:11.218Z,51.00
2023-09-20T16:16:40.786Z,51.17
2023-09-20T16:19:12.865Z,51.37
2023-09-20T16:21:42.245Z,51.58
2023-09-20T16:24:12.301Z,51.81
2023-09-20T16:26:42.504Z,52.01
2023-09-20T16:29:12.326Z,52.30
2023-09-20T16:31:42.026Z,52.61
2023-09-20T16:34:12.068Z,52.82
2023-09-20T16:36:41.994Z,53.06
2023-09-20T16:39:11.479Z,53.44
2023-09-20T16:41:42.364Z,53.88
2023-09-20T16:44:11.894Z,54.03
2023-09-20T16:46:41.090Z,54.42
2023-09-20T16:49:13.723Z,54.75
2023-09-20T16:51:43.253Z,55.10
2023-09-20T16:54:14.640Z,55.71
2023-09-20T16:56:44.802Z,56.06
2023-09-20T16:59:14.703Z,56.58
2023-09-20T17:01:44.679Z,56.74
2023-09-20T17:04:14.106Z,57.02
2023-09-20T17:06:43.936Z,57.35
2023-09-20T17:09:13.798Z,57.93
2023-09-20T17:11:43.116Z,59.40
2023-09-20T17:14:12.828Z,59.09
2023-09-20T17:16:42.202Z,59.31
2023-09-20T17:19:12.041Z,59.60
2023-09-20T17:21:42.090Z,59.84
2023-09-20T17:24:12.025Z,59.70
2023-09-20T17:26:42.120Z,60.22
2023-09-20T17:29:11.796Z,60.35
2023-09-20T17:31:41.942Z,60.27
2023-09-20T17:34:11.522Z,60.41
2023-09-20T17:36:41.033Z,60.72
2023-09-20T17:39:10.649Z,60.99
2023-09-20T17:41:45.119Z,61.60
2023-09-20T17:44:16.213Z,61.76
2023-09-20T17:46:45.692Z,61.56
2023-09-20T17:49:15.935Z,61.65
2023-09-20T17:51:45.955Z,61.96
2023-09-20T17:54:15.341Z,62.31
2023-09-20T17:56:49.208Z,62.43
2023-09-20T17:59:18.628Z,62.44
2023-09-20T18:01:50.713Z,62.66
2023-09-20T18:04:20.327Z,63.03
2023-09-20T18:06:50.088Z,63.16
2023-09-20T18:09:19.866Z,63.16
2023-09-20T18:11:50.586Z,63.21
2023-09-20T18:14:21.241Z,63.34
2023-09-20T18:16:52.869Z,63.54
2023-09-20T18:19:26.868Z,63.67
2023-09-20T18:21:57.376Z,64.02
2023-09-20T18:24:27.348Z,64.20
2023-09-20T18:26:58.780Z,64.46
2023-09-20T18:29:28.229Z,64.77
2023-09-20T18:31:57.754Z,65.04
2023-09-20T18:34:29.767Z,65.50
2023-09-20T18:37:00.298Z,65.75
2023-09-20T18:39:32.718Z,66.09
2023-09-20T18:42:07.894Z,66.20
2023-09-20T18:44:38.051Z,66.44
2023-09-20T18:47:13.414Z,66.81
2023-09-20T18:49:43.422Z,67.04
2023-09-20T18:52:14.328Z,67.24
2023-09-20T18:54:44.684Z,67.29
2023-09-20T18:57:16.337Z,67.55
2023-09-20T18:59:49.331Z,67.84
2023-09-20T19:02:24.720Z,68.14
2023-09-20T19:04:57.454Z,68.44
2023-09-20T19:07:27.131Z,68.71
2023-09-20T19:09:58.787Z,69.17
2023-09-20T19:12:29.218Z,69.48
2023-09-20T19:15:01.765Z,69.71
2023-09-20T19:17:35.773Z,70.18
2023-09-20T19:20:13.372Z,70.47
2023-09-20T19:22:45.173Z,70.86
2023-09-20T19:25:18.635Z,71.31
2023-09-20T19:27:49.257Z,71.60
2023-09-20T19:30:20.400Z,71.85
2023-09-20T19:32:50.713Z,72.11
2023-09-20T19:35:20.537Z,72.51
2023-09-20T19:37:49.983Z,72.77
2023-09-20T19:40:24.399Z,73.10
2023-09-20T19:42:54.677Z,73.46
2023-09-20T19:45:24.437Z,73.65
2023-09-20T19:47:56.024Z,73.98
2023-09-20T19:50:26.606Z,74.21
2023-09-20T19:52:56.326Z,74.64
2023-09-20T19:55:26.554Z,74.95
2023-09-20T19:57:57.396Z,75.03
2023-09-20T20:00:29.043Z,75.32
2023-09-20T20:03:03.752Z,75.66
2023-09-20T20:05:33.610Z,75.97
2023-09-20T20:08:12.450Z,76.31
2023-09-20T20:10:42.031Z,76.54
2023-09-20T20:13:11.326Z,76.75
2023-09-20T20:15:43.257Z,77.14
2023-09-20T20:18:12.960Z,77.44
2023-09-20T20:20:42.658Z,77.86
2023-09-20T20:23:13.304Z,77.87
2023-09-20T20:25:42.874Z,78.44
2023-09-20T20:28:20.151Z,78.65
2023-09-20T20:30:50.144Z,78.99
2023-09-20T20:33:20.500Z,79.54
2023-09-20T20:35:50.248Z,79.63
2023-09-20T20:38:20.302Z,79.98
2023-09-20T20:40:49.596Z,80.41
2023-09-20T20:43:19.170Z,80.69
2023-09-20T20:45:48.535Z,80.86
2023-09-20T20:48:17.990Z,81.00
2023-09-20T20:50:47.887Z,81.31
2023-09-20T20:53:27.344Z,81.27
2023-09-20T20:55:58.918Z,81.54
2023-09-20T20:58:29.555Z,81.65
2023-09-20T21:00:59.468Z,81.61
2023-09-20T21:03:29.264Z,81.53
2023-09-20T21:06:00.472Z,81.46
2023-09-20T21:08:30.149Z,81.61
2023-09-20T21:11:01.589Z,81.71
2023-09-20T21:13:30.858Z,81.91
2023-09-20T21:16:02.591Z,81.87
2023-09-20T21:18:32.186Z,82.29
2023-09-20T21:21:06.851Z,82.55
2023-09-20T21:23:37.007Z,82.69
2023-09-20T21:26:09.276Z,82.87
2023-09-20T21:28:38.583Z,82.99
2023-09-20T21:31:15.527Z,83.24
2023-09-20T21:33:45.860Z,83.59
2023-09-20T21:36:16.036Z,83.75
2023-09-20T21:38:46.159Z,84.15
2023-09-20T21:41:16.234Z,84.57
2023-09-20T21:43:45.533Z,84.58
2023-09-20T21:46:15.278Z,84.76
2023-09-20T21:48:45.187Z,85.06
2023-09-20T21:51:15.854Z,85.61
2023-09-20T21:53:45.353Z,85.97
2023-09-20T21:56:16.098Z,86.40
2023-09-20T21:58:45.478Z,86.96
2023-09-20T22:01:15.272Z,87.33
2023-09-20T22:03:44.998Z,87.79
2023-09-20T22:06:14.604Z,88.25
2023-09-20T22:08:44.684Z,88.47
2023-09-20T22:11:16.368Z,88.72
2023-09-20T22:13:45.642Z,88.98
2023-09-20T22:16:15.156Z,89.32
2023-09-20T22:18:44.754Z,89.35
2023-09-20T22:21:17.771Z,89.48
2023-09-20T22:23:47.306Z,89.57
2023-09-20T22:26:17.058Z,89.50
2023-09-20T22:28:46.605Z,89.46
2023-09-20T22:31:20.288Z,89.53
2023-09-20T22:33:49.918Z,89.76
2023-09-20T22:36:19.510Z,89.56
2023-09-20T22:38:50.708Z,89.96
2023-09-20T22:41:22.731Z,90.10
2023-09-20T22:43:52.224Z,90.22
2023-09-20T22:46:21.964Z,90.76
2023-09-20T22:48:52.063Z,91.16
2023-09-20T22:51:22.460Z,91.49
2023-09-20T22:53:52.281Z,91.98
2023-09-20T22:56:22.510Z,92.48
2023-09-20T22:58:54.014Z,92.75
2023-09-20T23:01:23.277Z,93.05
2023-09-20T23:03:52.885Z,93.19
2023-09-20T23:06:22.738Z,93.46
2023-09-20T23:08:51.916Z,93.85
2023-09-20T23:11:28.330Z,94.10
2023-09-20T23:14:00.000Z,94.80
2023-09-20T23:16:31.238Z,94.90
2023-09-20T23:19:05.454Z,95.20
2023-09-20T23:21:35.848Z,95.48
2023-09-20T23:24:07.335Z,95.95
2023-09-20T23:26:37.855Z,96.11
2023-09-20T23:29:08.535Z,96.12
2023-09-20T23:31:39.956Z,96.08
2023-09-20T23:34:09.655Z,96.35
2023-09-20T23:36:40.185Z,96.35
2023-09-20T23:39:12.848Z,96.51
2023-09-20T23:41:43.147Z,96.67
2023-09-20T23:44:12.796Z,96.79
2023-09-20T23:46:44.168Z,96.93
2023-09-20T23:49:13.978Z,97.14
2023-09-20T23:51:47.125Z,97.44
2023-09-20T23:54:16.789Z,97.80
2023-09-20T23:56:47.532Z,97.82
2023-09-20T23:59:17.206Z,98.01
